KMVL

Morrisville-Stowe State Airport

Morrisville, Vermont, USA
METAR KMVL 221654Z AUTO 21012KT 10SM -RA BKN060 BKN070 OVC090 16/11 A3009 RMK AO2 PK WND 19026/1636 RAB35 SLP192 P0000 T01610106
Observed Flight Rules
May-22 @ 16:54 UTC (an hour ago) Visual Flight Rules
Wind Visibility Clouds Conditions
210° at 12 knots 10 miles
  • Broken at 6,000' AGL
  • Broken at 7,000' AGL
  • Overcast at 9,000' AGL
  • Light Rain
Temperatures Readings Precipitation
Current 16°C / 61°F
Dewpoint 11°C / 52°F
Humidity 72%
Altimeter 30.09" Hg
Pressure 1019.2 hPa
Elevation 234
Current Rain 0.005
METAR KMVL 221654Z AUTO 21012KT 10SM -RA BKN060 BKN070 OVC090 16/11 A3009 RMK AO2 PK WND 19026/1636 RAB35 SLP192 P0000 T01610106
Observed Flight Rules
May-22 @ 16:54 UTC
(an hour ago)
VFR
Wind Visibility
210° at 12 knots 10 miles
Clouds
  • Broken at 6,000' AGL
  • Broken at 7,000' AGL
  • Overcast at 9,000' AGL
Conditions
  • Light Rain
Temperature Dewpoint
16°C / 61°F 11°C / 52°F
Humidity Altimeter Pressure
72% 30.09" Hg 1019.2 hPa
Current Rain
0.005